Time;durP1;ratioP1;P1;durP2;ratioP2;P2;SDS_P1;SDS_P2;PMS_P1;PMS_P2;Temp;Humidity;BMP_temperature;BMP_pressure;BME280_temperature;BME280_humidity;BME280_pressure;Samples;Min_cycle;Max_cycle;Signal;HPM_P1;HPM_P2
2021/09/22 00:02:11;;;;;;;1.90;1.43;;;28.10;51.40;;;;;;5044123;28;20475;-28
2021/09/22 00:04:44;;;;;;;1.50;1.20;;;28.00;50.90;;;;;;5044040;28;20560;-28
2021/09/22 00:07:15;;;;;;;1.60;1.13;;;28.10;49.70;;;;;;5042273;28;20472;-27
2021/09/22 00:09:46;;;;;;;3.33;1.30;;;28.00;52.10;;;;;;5045050;28;20503;-27
2021/09/22 00:12:17;;;;;;;1.40;1.20;;;27.90;51.60;;;;;;5044837;28;20765;-27
2021/09/22 00:14:48;;;;;;;2.40;1.10;;;27.80;51.10;;;;;;5045129;28;20456;-27
2021/09/22 00:17:19;;;;;;;1.90;1.57;;;27.80;50.50;;;;;;5026450;28;20448;-28
2021/09/22 00:19:52;;;;;;;1.30;1.20;;;27.60;52.60;;;;;;5045343;28;20449;-28
2021/09/22 00:22:23;;;;;;;2.23;1.43;;;27.60;51.80;;;;;;5043889;28;20510;-26
2021/09/22 00:24:54;;;;;;;2.30;1.30;;;27.50;52.30;;;;;;5043372;28;20446;-28
2021/09/22 00:27:25;;;;;;;1.30;1.20;;;27.40;52.40;;;;;;5039599;28;20492;-26
2021/09/22 00:29:57;;;;;;;1.73;1.20;;;27.40;52.40;;;;;;5035570;28;20519;-28
2021/09/22 00:32:29;;;;;;;1.50;1.40;;;27.30;54.30;;;;;;5044075;28;20499;-28
2021/09/22 00:35:01;;;;;;;1.30;1.20;;;27.20;53.20;;;;;;5043544;28;20467;-28
2021/09/22 00:37:33;;;;;;;4.33;1.60;;;27.00;55.60;;;;;;5044437;28;20454;-28
2021/09/22 00:40:04;;;;;;;2.40;1.70;;;27.00;53.90;;;;;;5044636;28;20460;-28
2021/09/22 00:42:35;;;;;;;2.67;1.80;;;26.90;54.20;;;;;;5042349;28;20455;-28
2021/09/22 00:45:08;;;;;;;1.60;1.30;;;26.70;54.80;;;;;;5043812;28;20441;-28
2021/09/22 00:47:39;;;;;;;2.23;1.53;;;26.60;53.20;;;;;;5044002;28;20509;-27
2021/09/22 00:50:13;;;;;;;2.13;1.70;;;26.50;55.40;;;;;;5044642;28;20489;-27
2021/09/22 00:52:44;;;;;;;1.73;1.57;;;26.40;56.20;;;;;;5043996;28;20455;-28
2021/09/22 00:55:16;;;;;;;1.50;1.40;;;26.40;54.80;;;;;;5044600;28;20540;-27
2021/09/22 00:57:51;;;;;;;6.10;2.50;;;26.40;55.30;;;;;;5043676;28;20503;-29
2021/09/22 01:00:25;;;;;;;5.60;3.80;;;26.20;55.30;;;;;;5044792;28;20478;-26
2021/09/22 01:02:57;;;;;;;4.00;2.80;;;26.20;53.60;;;;;;5042938;28;20455;-27
2021/09/22 01:05:30;;;;;;;2.60;2.40;;;26.20;56.60;;;;;;5043744;28;20516;-28
2021/09/22 01:08:01;;;;;;;1.83;1.73;;;26.00;55.70;;;;;;5040012;28;20459;-27
2021/09/22 01:10:32;;;;;;;1.90;1.80;;;26.00;56.40;;;;;;5044528;28;20911;-27
2021/09/22 01:13:03;;;;;;;1.50;1.37;;;25.90;56.50;;;;;;5043974;28;20524;-27
2021/09/22 01:15:37;;;;;;;1.50;1.40;;;25.80;54.50;;;;;;5043410;28;20454;-27
2021/09/22 01:18:11;;;;;;;2.30;2.10;;;25.70;56.60;;;;;;5043301;28;20453;-27
2021/09/22 01:20:45;;;;;;;3.70;1.70;;;25.60;57.90;;;;;;5044296;28;20541;-27
2021/09/22 01:23:17;;;;;;;2.10;1.80;;;25.50;57.30;;;;;;5043157;28;20446;-26
2021/09/22 01:25:50;;;;;;;2.90;1.90;;;25.40;58.70;;;;;;5043579;28;20464;-26
2021/09/22 01:28:23;;;;;;;4.93;2.07;;;25.20;59.20;;;;;;5043605;28;20469;-26
2021/09/22 01:30:54;;;;;;;1.47;1.30;;;25.00;58.90;;;;;;5043918;28;20490;-27
2021/09/22 01:33:26;;;;;;;1.30;1.20;;;25.00;55.80;;;;;;5043668;28;20473;-27
2021/09/22 01:35:57;;;;;;;1.20;1.20;;;24.90;58.80;;;;;;5044049;28;20449;-26
2021/09/22 01:38:30;;;;;;;1.60;1.50;;;24.80;58.30;;;;;;5043927;28;20503;-27
2021/09/22 01:41:03;;;;;;;2.40;1.60;;;24.60;63.20;;;;;;5028519;28;20457;-27
2021/09/22 01:43:35;;;;;;;1.67;1.57;;;24.40;64.10;;;;;;5043849;28;20544;-26
2021/09/22 01:46:08;;;;;;;2.60;1.70;;;24.20;61.40;;;;;;5043404;28;20573;-27
2021/09/22 01:48:39;;;;;;;1.77;1.30;;;24.00;64.10;;;;;;5043419;28;20776;-27
2021/09/22 01:51:11;;;;;;;3.63;1.77;;;23.90;64.60;;;;;;5044181;28;20484;-27
2021/09/22 01:53:44;;;;;;;4.33;1.70;;;23.80;64.70;;;;;;5043037;28;20547;-26
2021/09/22 01:56:15;;;;;;;1.87;1.53;;;23.60;65.30;;;;;;5043092;28;20461;-27
2021/09/22 01:58:46;;;;;;;1.90;1.70;;;23.40;64.40;;;;;;5043855;28;20445;-27
2021/09/22 02:01:17;;;;;;;1.73;1.40;;;23.30;67.20;;;;;;5043455;28;20445;-27
2021/09/22 02:03:49;;;;;;;2.43;1.80;;;23.20;65.90;;;;;;5043152;28;20501;-27
2021/09/22 02:06:20;;;;;;;1.53;1.43;;;23.20;66.20;;;;;;5043248;28;20481;-27
2021/09/22 02:08:53;;;;;;;2.50;2.10;;;23.00;65.50;;;;;;5043401;28;20453;-27
2021/09/22 02:11:23;;;;;;;2.00;1.80;;;22.80;68.40;;;;;;5042679;28;20997;-27
2021/09/22 02:13:54;;;;;;;1.63;1.40;;;22.70;67.30;;;;;;5042617;28;20933;-27
2021/09/22 02:16:25;;;;;;;1.60;1.50;;;22.60;69.70;;;;;;5039302;28;20469;-27
2021/09/22 02:18:56;;;;;;;1.97;1.87;;;22.40;67.00;;;;;;5043356;28;20443;-27
2021/09/22 02:21:27;;;;;;;2.03;1.93;;;22.30;69.40;;;;;;5041850;28;20495;-27
2021/09/22 02:24:00;;;;;;;2.00;1.80;;;22.20;69.70;;;;;;5043131;28;20507;-27
2021/09/22 02:26:31;;;;;;;2.57;1.90;;;22.20;70.20;;;;;;5042331;28;20909;-27
2021/09/22 02:29:01;;;;;;;2.70;1.83;;;22.00;71.00;;;;;;5042227;28;20583;-27
2021/09/22 02:31:32;;;;;;;2.50;1.87;;;21.90;69.60;;;;;;5038835;28;20477;-27
2021/09/22 02:34:04;;;;;;;1.63;1.53;;;21.80;75.10;;;;;;5041891;28;20925;-27
2021/09/22 02:36:35;;;;;;;3.30;1.57;;;21.60;72.80;;;;;;5040720;28;20471;-27
2021/09/22 02:39:07;;;;;;;2.60;2.00;;;21.50;74.20;;;;;;5043000;28;20445;-27
2021/09/22 02:41:39;;;;;;;3.50;1.57;;;21.40;73.10;;;;;;5042066;28;20481;-26
2021/09/22 02:44:10;;;;;;;2.13;1.93;;;21.30;75.50;;;;;;5042489;28;20449;-27
2021/09/22 02:46:41;;;;;;;3.57;2.07;;;21.20;78.20;;;;;;5041066;28;20484;-27
2021/09/22 02:49:12;;;;;;;2.07;1.60;;;21.10;76.70;;;;;;5042721;28;20435;-27
2021/09/22 02:51:42;;;;;;;3.43;1.60;;;21.00;74.90;;;;;;5040617;28;20502;-26
2021/09/22 02:54:15;;;;;;;2.10;2.00;;;21.00;75.70;;;;;;5042332;28;20460;-27
2021/09/22 02:56:46;;;;;;;2.67;2.03;;;20.90;79.40;;;;;;5041879;28;20489;-26
2021/09/22 02:59:17;;;;;;;1.70;1.60;;;20.80;78.40;;;;;;5042746;28;20449;-27
2021/09/22 03:01:48;;;;;;;5.67;2.00;;;20.70;78.70;;;;;;5041460;28;20488;-27
2021/09/22 03:04:20;;;;;;;2.23;2.03;;;20.50;79.90;;;;;;5040555;28;20451;-27
2021/09/22 03:06:52;;;;;;;1.90;1.80;;;20.40;86.60;;;;;;5041542;28;20527;-27
2021/09/22 03:09:25;;;;;;;4.63;2.10;;;20.30;81.30;;;;;;5035618;28;20464;-27
2021/09/22 03:11:56;;;;;;;2.20;2.00;;;20.20;84.30;;;;;;5041326;28;20489;-27
2021/09/22 03:14:27;;;;;;;2.50;2.30;;;20.10;83.10;;;;;;5041824;28;20473;-27
2021/09/22 03:16:58;;;;;;;3.90;2.60;;;20.00;89.00;;;;;;5040640;28;20501;-27
2021/09/22 03:19:29;;;;;;;3.33;2.20;;;20.00;87.80;;;;;;5042895;28;20485;-27
2021/09/22 03:22:00;;;;;;;5.20;2.60;;;19.90;89.70;;;;;;5042156;28;20457;-27
2021/09/22 03:24:32;;;;;;;2.83;2.60;;;19.80;91.70;;;;;;5042354;28;20473;-27
2021/09/22 03:27:03;;;;;;;3.00;2.70;;;19.80;90.50;;;;;;5042121;28;20773;-27
2021/09/22 03:29:54;;;;;;;3.00;2.80;;;19.70;93.20;;;;;;5034345;28;20778;-27
2021/09/22 03:32:25;;;;;;;2.57;2.37;;;19.50;93.20;;;;;;5041100;28;20476;-27
2021/09/22 03:34:56;;;;;;;3.23;2.93;;;19.50;96.10;;;;;;5042256;28;20469;-27
2021/09/22 03:37:27;;;;;;;3.17;2.87;;;19.40;95.50;;;;;;5040880;28;20482;-27
2021/09/22 03:40:00;;;;;;;5.33;2.93;;;19.40;92.70;;;;;;5041958;28;20794;-26
2021/09/22 03:42:31;;;;;;;2.80;2.30;;;19.40;93.50;;;;;;5041894;28;20460;-27
2021/09/22 03:45:02;;;;;;;3.07;2.60;;;19.40;93.30;;;;;;5042357;28;20449;-27
2021/09/22 03:47:35;;;;;;;2.40;2.20;;;19.40;94.50;;;;;;5040114;28;20424;-27
2021/09/22 03:50:07;;;;;;;3.00;2.80;;;19.40;93.40;;;;;;5042826;28;20432;-27
2021/09/22 03:52:38;;;;;;;3.90;3.00;;;19.40;93.50;;;;;;5041635;28;20523;-27
2021/09/22 03:55:11;;;;;;;3.10;2.80;;;19.30;94.00;;;;;;5042151;28;20477;-27
2021/09/22 03:57:42;;;;;;;3.90;3.03;;;19.30;97.90;;;;;;5041836;28;20772;-27
2021/09/22 04:00:14;;;;;;;3.30;2.97;;;19.10;97.60;;;;;;5041738;28;20450;-27
2021/09/22 04:02:45;;;;;;;3.30;2.90;;;19.00;98.90;;;;;;5040551;28;20492;-27
2021/09/22 04:05:17;;;;;;;7.93;3.00;;;18.90;99.90;;;;;;5041908;28;20837;-27
2021/09/22 04:07:48;;;;;;;4.40;3.10;;;18.80;99.90;;;;;;5040336;28;20528;-27
2021/09/22 04:10:21;;;;;;;3.80;2.90;;;18.70;99.90;;;;;;5041956;28;20528;-27
2021/09/22 04:12:52;;;;;;;4.30;2.83;;;18.60;99.90;;;;;;5041975;28;20509;-27
2021/09/22 04:15:23;;;;;;;4.50;2.97;;;18.50;99.90;;;;;;5041185;28;20425;-27
2021/09/22 04:17:54;;;;;;;5.80;3.17;;;18.40;99.90;;;;;;5041309;28;20449;-27
2021/09/22 04:20:25;;;;;;;3.80;3.50;;;18.40;99.90;;;;;;5045921;28;20434;-27
2021/09/22 04:22:56;;;;;;;5.03;3.60;;;18.40;99.90;;;;;;5044667;28;20453;-27
2021/09/22 04:25:29;;;;;;;4.27;3.27;;;18.30;99.90;;;;;;5044124;28;20435;-27
2021/09/22 04:28:00;;;;;;;4.13;3.57;;;18.20;99.90;;;;;;5042297;28;20439;-27
2021/09/22 04:30:31;;;;;;;3.40;3.10;;;18.20;99.90;;;;;;5047255;28;20488;-27
2021/09/22 04:33:02;;;;;;;5.23;3.80;;;18.10;99.90;;;;;;5050098;28;20480;-27
2021/09/22 04:35:34;;;;;;;3.53;3.23;;;18.00;99.90;;;;;;5051573;28;20436;-27
2021/09/22 04:38:07;;;;;;;3.83;3.43;;;17.90;99.90;;;;;;5049620;28;20437;-27
2021/09/22 04:40:39;;;;;;;3.93;3.53;;;17.80;99.90;;;;;;5055808;28;20444;-27
2021/09/22 04:43:10;;;;;;;3.50;3.20;;;17.70;99.90;;;;;;5054824;28;20424;-27
2021/09/22 04:45:42;;;;;;;3.73;3.37;;;17.60;99.90;;;;;;5052243;28;20452;-27
2021/09/22 04:48:13;;;;;;;3.27;3.07;;;17.60;99.90;;;;;;5043463;28;20471;-28
2021/09/22 04:50:44;;;;;;;4.60;3.77;;;17.60;99.90;;;;;;5049911;28;20442;-26
2021/09/22 04:53:15;;;;;;;3.20;2.90;;;17.50;99.90;;;;;;5053512;28;21992;-27
2021/09/22 04:55:48;;;;;;;3.80;3.50;;;17.50;99.90;;;;;;5048473;28;20458;-27
2021/09/22 04:58:19;;;;;;;3.40;3.10;;;17.50;99.90;;;;;;5048971;28;20455;-27
2021/09/22 05:00:50;;;;;;;3.60;3.30;;;17.50;99.90;;;;;;5044967;28;20424;-27
2021/09/22 05:03:21;;;;;;;4.30;3.90;;;17.30;99.90;;;;;;5043874;28;20925;-27
2021/09/22 05:05:53;;;;;;;3.80;3.50;;;17.30;99.90;;;;;;5044033;28;20499;-27
2021/09/22 05:08:24;;;;;;;4.20;3.80;;;17.30;99.90;;;;;;5040272;28;20461;-25
2021/09/22 05:10:57;;;;;;;5.97;3.90;;;17.30;99.90;;;;;;5044553;28;20432;-27
2021/09/22 05:13:28;;;;;;;4.50;4.10;;;17.20;99.90;;;;;;5044346;28;20466;-26
2021/09/22 05:15:59;;;;;;;3.83;3.50;;;17.20;99.90;;;;;;5037165;28;20456;-26
2021/09/22 05:18:30;;;;;;;5.37;3.77;;;17.10;99.90;;;;;;5043645;28;20521;-27
2021/09/22 05:21:01;;;;;;;5.93;3.70;;;17.10;99.90;;;;;;5044349;28;20453;-27
2021/09/22 05:23:32;;;;;;;4.30;3.90;;;17.00;99.90;;;;;;5044824;28;20462;-27
2021/09/22 05:26:05;;;;;;;6.37;4.10;;;17.00;99.90;;;;;;5044699;28;20454;-27
2021/09/22 05:28:35;;;;;;;5.87;3.37;;;17.00;99.90;;;;;;5043592;28;20476;-28
2021/09/22 05:31:06;;;;;;;3.90;3.60;;;16.90;99.90;;;;;;5043457;28;20449;-28
2021/09/22 05:33:37;;;;;;;4.10;3.70;;;16.90;99.90;;;;;;5044042;28;20800;-27
2021/09/22 05:36:08;;;;;;;4.53;4.13;;;16.80;99.90;;;;;;5044437;28;20575;-27
2021/09/22 05:38:39;;;;;;;4.20;3.80;;;16.80;99.90;;;;;;5044384;28;20457;-27
2021/09/22 05:41:12;;;;;;;6.23;3.90;;;16.80;99.90;;;;;;5044509;28;20500;-28
2021/09/22 05:43:43;;;;;;;4.47;3.87;;;16.70;99.90;;;;;;5043657;28;20445;-28
2021/09/22 05:46:14;;;;;;;4.57;3.50;;;16.60;99.90;;;;;;5043849;28;20449;-28
2021/09/22 05:48:45;;;;;;;5.23;4.17;;;16.60;99.90;;;;;;5044019;28;20456;-28
2021/09/22 05:51:16;;;;;;;5.43;3.27;;;16.50;99.90;;;;;;5044076;28;20658;-27
2021/09/22 05:53:48;;;;;;;4.00;3.70;;;16.50;99.90;;;;;;5044257;28;20566;-27
2021/09/22 05:56:21;;;;;;;4.10;3.77;;;16.50;99.90;;;;;;5043419;28;20461;-27
2021/09/22 05:58:51;;;;;;;4.43;3.50;;;16.50;99.90;;;;;;5043885;28;20462;-27
2021/09/22 06:01:22;;;;;;;4.80;4.03;;;16.50;99.90;;;;;;5042395;28;20485;-27
2021/09/22 06:03:54;;;;;;;5.23;4.20;;;16.40;99.90;;;;;;5042867;28;20480;-27
2021/09/22 06:06:25;;;;;;;4.70;3.90;;;16.40;99.90;;;;;;5043026;28;20971;-28
2021/09/22 06:08:56;;;;;;;4.77;4.37;;;16.30;99.90;;;;;;5043851;28;20453;-27
2021/09/22 06:11:29;;;;;;;4.97;3.90;;;16.30;99.90;;;;;;5042931;28;20481;-27
2021/09/22 06:14:00;;;;;;;4.07;3.77;;;16.20;99.90;;;;;;5043440;28;20911;-27
2021/09/22 06:16:31;;;;;;;6.00;4.50;;;16.20;99.90;;;;;;5041981;28;20781;-27
2021/09/22 06:19:05;;;;;;;5.10;4.07;;;16.20;99.90;;;;;;5043309;28;20469;-26
2021/09/22 06:21:36;;;;;;;4.10;3.70;;;16.10;99.90;;;;;;5042975;28;20461;-26
2021/09/22 06:24:08;;;;;;;4.30;3.90;;;16.10;99.90;;;;;;5043616;28;20544;-26
2021/09/22 06:26:40;;;;;;;4.10;3.63;;;16.00;99.90;;;;;;5042794;28;20564;-26
2021/09/22 06:29:11;;;;;;;5.40;3.40;;;16.00;99.90;;;;;;5043109;28;20510;-28
2021/09/22 06:31:43;;;;;;;4.37;3.97;;;15.90;99.90;;;;;;5041099;28;20468;-27
2021/09/22 06:34:14;;;;;;;5.20;4.30;;;15.90;99.90;;;;;;5043185;28;20504;-27
2021/09/22 06:36:45;;;;;;;4.43;4.00;;;15.90;99.90;;;;;;5028654;28;20505;-27
2021/09/22 06:39:16;;;;;;;4.70;4.30;;;15.90;99.90;;;;;;5043519;28;20982;-27
2021/09/22 06:41:48;;;;;;;3.90;3.60;;;15.90;99.90;;;;;;5041911;28;20603;-28
2021/09/22 06:44:19;;;;;;;4.10;3.67;;;15.90;99.90;;;;;;5043057;28;20500;-28
2021/09/22 06:46:50;;;;;;;4.63;4.27;;;15.90;99.90;;;;;;5041331;28;20461;-27
2021/09/22 06:49:21;;;;;;;7.53;3.47;;;15.90;99.90;;;;;;5042376;28;20908;-27
2021/09/22 06:51:52;;;;;;;4.67;4.00;;;15.70;99.90;;;;;;5041595;28;20445;-27
2021/09/22 06:54:23;;;;;;;4.30;3.90;;;15.70;99.90;;;;;;5042471;28;20524;-27
2021/09/22 06:56:56;;;;;;;5.40;4.30;;;15.70;99.90;;;;;;5042333;28;20449;-27
2021/09/22 06:59:27;;;;;;;4.63;4.23;;;15.60;99.90;;;;;;5034630;28;21904;-27
2021/09/22 07:01:58;;;;;;;4.30;3.90;;;15.60;99.90;;;;;;5036738;28;20576;-27
2021/09/22 07:04:29;;;;;;;3.73;3.43;;;15.60;99.90;;;;;;5037792;28;20490;-27
2021/09/22 07:07:00;;;;;;;4.90;4.40;;;15.50;99.90;;;;;;5036758;28;20456;-27
2021/09/22 07:09:31;;;;;;;5.27;4.20;;;15.50;99.90;;;;;;5033266;28;20465;-27
2021/09/22 07:12:20;;;;;;;4.70;4.30;;;15.50;99.90;;;;;;5036912;28;20460;-27
2021/09/22 07:14:51;;;;;;;4.30;3.90;;;15.40;99.90;;;;;;5037525;28;20480;-27
2021/09/22 07:17:22;;;;;;;5.17;4.77;;;15.40;99.90;;;;;;5036506;28;20477;-28
2021/09/22 07:19:53;;;;;;;4.93;4.43;;;15.30;99.90;;;;;;5038531;28;20445;-27
2021/09/22 07:22:29;;;;;;;5.07;4.57;;;15.30;99.90;;;;;;5037478;28;20468;-27
2021/09/22 07:24:59;;;;;;;5.30;4.30;;;15.30;99.90;;;;;;5038265;28;20495;-27
2021/09/22 07:27:32;;;;;;;6.27;5.20;;;15.20;99.90;;;;;;5033439;28;20485;-27
2021/09/22 07:30:03;;;;;;;4.70;4.40;;;15.20;99.90;;;;;;5037826;28;20480;-27
2021/09/22 07:32:34;;;;;;;6.33;5.07;;;15.30;99.90;;;;;;5031282;28;20424;-27
2021/09/22 07:35:06;;;;;;;5.73;4.87;;;15.30;99.90;;;;;;5037821;28;20449;-27
2021/09/22 07:37:37;;;;;;;4.40;4.00;;;15.20;99.90;;;;;;5036822;28;20489;-27
2021/09/22 07:40:12;;;;;;;4.73;4.33;;;15.20;99.90;;;;;;5037414;28;20793;-27
2021/09/22 07:42:45;;;;;;;4.33;3.93;;;15.20;99.90;;;;;;5037078;28;20496;-27
2021/09/22 07:45:16;;;;;;;5.27;4.27;;;15.20;99.90;;;;;;5037621;28;20489;-27
2021/09/22 07:47:47;;;;;;;4.87;4.47;;;15.10;99.90;;;;;;5036427;28;20469;-27
2021/09/22 07:50:18;;;;;;;4.20;3.90;;;15.10;99.90;;;;;;5037656;28;20477;-27
2021/09/22 07:52:49;;;;;;;4.97;4.47;;;15.10;99.90;;;;;;5039376;28;20457;-27
2021/09/22 07:55:21;;;;;;;4.90;4.10;;;15.00;99.90;;;;;;5042814;28;20457;-27
2021/09/22 07:57:54;;;;;;;5.17;4.37;;;15.00;99.90;;;;;;5040961;28;20428;-27
2021/09/22 08:00:26;;;;;;;4.67;4.27;;;14.90;99.90;;;;;;5041089;28;20468;-27
2021/09/22 08:02:58;;;;;;;4.33;3.93;;;14.90;99.90;;;;;;5039905;28;20491;-27
2021/09/22 08:05:36;;;;;;;5.43;4.93;;;14.80;99.90;;;;;;5040316;28;20484;-27
2021/09/22 08:08:08;;;;;;;4.40;4.10;;;14.80;99.90;;;;;;5041229;28;20491;-27
2021/09/22 08:10:41;;;;;;;5.37;4.30;;;14.80;99.90;;;;;;5041578;28;20464;-27
2021/09/22 08:13:13;;;;;;;5.20;4.70;;;14.90;99.90;;;;;;5035965;28;20487;-27
2021/09/22 08:15:44;;;;;;;5.10;4.67;;;14.80;99.90;;;;;;5040798;28;20485;-27
2021/09/22 08:18:15;;;;;;;4.90;4.50;;;14.70;99.90;;;;;;5040009;28;20511;-27
2021/09/22 08:20:47;;;;;;;8.20;4.57;;;14.60;99.90;;;;;;5040925;28;20445;-27
2021/09/22 08:23:17;;;;;;;4.77;4.03;;;14.50;99.90;;;;;;5040185;28;20567;-27
2021/09/22 08:25:48;;;;;;;4.27;3.97;;;14.60;99.90;;;;;;5041381;28;20460;-27
2021/09/22 08:28:21;;;;;;;5.20;4.70;;;14.60;99.90;;;;;;5044718;28;20462;-27
2021/09/22 08:30:52;;;;;;;6.80;4.80;;;14.50;99.90;;;;;;5044960;28;20469;-27
2021/09/22 08:33:23;;;;;;;4.47;4.07;;;14.50;99.90;;;;;;5040341;28;20460;-27
2021/09/22 08:35:54;;;;;;;4.70;4.30;;;14.50;99.90;;;;;;5044564;28;20450;-27
2021/09/22 08:38:25;;;;;;;5.13;4.73;;;14.40;99.90;;;;;;5044134;28;20449;-27
2021/09/22 08:40:56;;;;;;;4.87;4.40;;;14.40;99.90;;;;;;5043854;28;20469;-27
2021/09/22 08:43:32;;;;;;;4.47;4.10;;;14.40;99.90;;;;;;5043686;28;20485;-27
2021/09/22 08:46:03;;;;;;;6.87;4.60;;;14.40;99.90;;;;;;5031990;28;20479;-28
2021/09/22 08:48:35;;;;;;;5.23;4.67;;;14.40;99.90;;;;;;5044169;28;20509;-27
2021/09/22 08:51:06;;;;;;;7.40;4.67;;;14.20;99.90;;;;;;5045109;28;20493;-27
2021/09/22 08:53:37;;;;;;;5.23;4.73;;;14.20;99.90;;;;;;5044167;28;20484;-27
2021/09/22 08:56:13;;;;;;;4.90;4.50;;;14.20;99.90;;;;;;5044823;28;20449;-27
2021/09/22 08:58:45;;;;;;;5.80;5.27;;;14.30;99.90;;;;;;5044939;28;20460;-28
2021/09/22 09:01:20;;;;;;;5.23;4.73;;;14.20;99.90;;;;;;5043797;28;20476;-27
2021/09/22 09:03:51;;;;;;;5.20;4.70;;;14.20;99.90;;;;;;5031430;28;20499;-27
2021/09/22 09:06:25;;;;;;;5.40;4.90;;;14.10;99.90;;;;;;5044411;28;20485;-28
2021/09/22 09:08:59;;;;;;;5.00;4.50;;;14.00;99.90;;;;;;5044095;28;20458;-27
2021/09/22 09:11:31;;;;;;;5.30;4.80;;;14.00;99.90;;;;;;5041508;28;20457;-28
2021/09/22 09:14:06;;;;;;;4.90;4.50;;;13.90;99.90;;;;;;5044570;28;20458;-27
2021/09/22 09:16:38;;;;;;;5.20;4.77;;;13.90;99.90;;;;;;5036094;28;20468;-27
2021/09/22 09:19:15;;;;;;;5.23;4.70;;;13.90;99.90;;;;;;5042164;28;20874;-27
2021/09/22 09:22:00;;;;;;;6.80;5.57;;;13.80;99.90;;;;;;5044513;28;20817;-27
2021/09/22 09:24:32;;;;;;;5.27;4.87;;;13.80;99.90;;;;;;5044210;28;20492;-27
2021/09/22 09:27:04;;;;;;;6.00;5.40;;;13.70;99.90;;;;;;5044319;28;20537;-27
2021/09/22 09:29:37;;;;;;;6.40;5.53;;;13.70;99.90;;;;;;5044178;28;20476;-28
2021/09/22 09:32:19;;;;;;;4.97;4.57;;;13.70;99.90;;;;;;5043176;28;20446;-28
2021/09/22 09:35:03;;;;;;;4.90;4.50;;;13.70;99.90;;;;;;5043056;28;20457;-27
2021/09/22 09:37:37;;;;;;;6.50;5.77;;;13.80;99.90;;;;;;5044187;28;20444;-27
2021/09/22 09:40:25;;;;;;;5.57;5.07;;;13.80;99.90;;;;;;5044218;28;20604;-27
2021/09/22 09:43:00;;;;;;;6.17;5.07;;;13.80;99.90;;;;;;5044180;28;20454;-27
2021/09/22 09:45:37;;;;;;;5.03;4.53;;;13.70;99.90;;;;;;5044230;28;20485;-27
2021/09/22 09:48:10;;;;;;;5.23;4.80;;;13.70;99.90;;;;;;5032707;28;20484;-27
2021/09/22 09:50:46;;;;;;;4.83;4.33;;;13.70;99.90;;;;;;5043979;28;20450;-27
2021/09/22 09:53:25;;;;;;;5.27;4.87;;;13.60;99.90;;;;;;5043729;28;20499;-27
2021/09/22 09:55:58;;;;;;;7.20;4.70;;;13.60;99.90;;;;;;5043755;28;20449;-28
2021/09/22 09:58:30;;;;;;;5.47;4.70;;;13.60;99.90;;;;;;5043914;28;20449;-27
2021/09/22 10:01:03;;;;;;;5.27;4.80;;;13.60;99.90;;;;;;5044373;28;20461;-27
2021/09/22 10:03:34;;;;;;;5.60;5.10;;;13.70;99.90;;;;;;5041661;28;20528;-27
2021/09/22 10:06:08;;;;;;;5.47;5.07;;;13.70;99.90;;;;;;5041656;28;20519;-27
2021/09/22 10:08:39;;;;;;;5.37;4.87;;;13.70;99.90;;;;;;5043189;28;20477;-27
2021/09/22 10:11:10;;;;;;;5.43;4.97;;;13.70;99.90;;;;;;5043787;28;20445;-27
2021/09/22 10:13:41;;;;;;;5.37;4.87;;;13.70;99.90;;;;;;5043406;28;20453;-27
2021/09/22 10:16:16;;;;;;;5.70;5.20;;;13.70;99.90;;;;;;5042265;28;20971;-27
2021/09/22 10:18:49;;;;;;;5.30;4.80;;;13.80;99.90;;;;;;5042975;28;20500;-27
2021/09/22 10:21:22;;;;;;;6.00;5.40;;;13.70;99.90;;;;;;5042719;28;20485;-27
2021/09/22 10:23:54;;;;;;;6.63;5.27;;;13.60;99.90;;;;;;5043097;28;20453;-27
2021/09/22 10:26:25;;;;;;;6.40;5.10;;;13.60;99.90;;;;;;5042806;28;20540;-27
2021/09/22 10:29:00;;;;;;;4.43;3.90;;;13.50;99.90;;;;;;5043776;28;20477;-27
2021/09/22 10:31:41;;;;;;;5.10;4.60;;;13.60;99.90;;;;;;5042045;28;20468;-27
2021/09/22 10:34:27;;;;;;;5.30;4.80;;;13.50;99.90;;;;;;5042703;28;20469;-27
2021/09/22 10:36:58;;;;;;;4.87;4.47;;;13.60;99.90;;;;;;5042077;28;20461;-27
2021/09/22 10:39:44;;;;;;;5.20;4.80;;;13.60;99.90;;;;;;5042887;28;20894;-27
2021/09/22 10:42:27;;;;;;;5.10;4.60;;;13.60;99.90;;;;;;5042569;28;20477;-27
2021/09/22 10:45:15;;;;;;;5.47;4.63;;;13.60;99.90;;;;;;5042467;28;20503;-27
2021/09/22 10:47:48;;;;;;;6.63;4.50;;;13.60;99.90;;;;;;5042128;28;21006;-28
2021/09/22 10:50:48;;;;;;;6.10;4.43;;;13.60;99.90;;;;;;5043146;28;20469;-27
2021/09/22 10:53:39;;;;;;;5.03;4.63;;;13.60;99.90;;;;;;5039389;28;20466;-27
2021/09/22 10:56:13;;;;;;;5.40;4.90;;;13.60;99.90;;;;;;5043410;28;20469;-27
2021/09/22 10:58:51;;;;;;;4.57;4.27;;;13.60;99.90;;;;;;5042587;28;20514;-27
2021/09/22 11:01:52;;;;;;;5.73;4.40;;;13.60;99.90;;;;;;5031063;28;20464;-28
2021/09/22 11:04:25;;;;;;;5.40;4.90;;;13.60;99.90;;;;;;4953475;29;20471;-27
2021/09/22 11:07:00;;;;;;;5.50;4.97;;;13.70;99.90;;;;;;4961762;29;20591;-27
2021/09/22 11:09:37;;;;;;;6.10;4.50;;;13.70;99.90;;;;;;4956494;29;20448;-27
2021/09/22 11:12:15;;;;;;;5.63;5.00;;;13.70;99.90;;;;;;4961674;29;20459;-27
2021/09/22 11:14:49;;;;;;;4.93;4.40;;;13.70;99.90;;;;;;4961660;29;20536;-28
2021/09/22 11:17:23;;;;;;;5.77;5.27;;;13.70;99.90;;;;;;4961618;29;20551;-27
2021/09/22 11:19:57;;;;;;;7.90;5.40;;;13.70;99.90;;;;;;4961947;29;20452;-27
2021/09/22 11:22:31;;;;;;;5.20;4.70;;;13.70;99.90;;;;;;4961301;29;20463;-27
2021/09/22 11:25:03;;;;;;;5.20;4.70;;;13.70;99.90;;;;;;4961037;29;20508;-27
2021/09/22 11:27:37;;;;;;;4.50;4.10;;;13.70;99.90;;;;;;4963708;28;20546;-27
2021/09/22 11:30:10;;;;;;;5.93;5.23;;;13.70;99.90;;;;;;4965474;29;20449;-27
2021/09/22 11:32:42;;;;;;;7.23;5.00;;;13.70;99.90;;;;;;4965267;29;20445;-27
2021/09/22 11:35:16;;;;;;;5.10;4.70;;;13.70;99.90;;;;;;4964857;29;20503;-27
2021/09/22 11:37:49;;;;;;;5.13;4.70;;;13.80;99.90;;;;;;4964883;29;20884;-27
2021/09/22 11:40:22;;;;;;;7.00;5.07;;;13.80;99.90;;;;;;4997169;28;20844;-27
2021/09/22 11:43:00;;;;;;;5.83;5.33;;;13.80;99.90;;;;;;5045594;28;20532;-27
2021/09/22 11:45:35;;;;;;;5.70;5.00;;;13.80;99.90;;;;;;5045604;28;20488;-27
2021/09/22 11:48:08;;;;;;;4.93;4.37;;;13.80;99.90;;;;;;5045835;28;20767;-27
2021/09/22 11:50:42;;;;;;;5.20;4.70;;;13.80;99.90;;;;;;5045966;28;20484;-27
2021/09/22 11:53:15;;;;;;;4.70;4.30;;;13.80;99.90;;;;;;5045884;28;20481;-27
2021/09/22 11:55:48;;;;;;;5.20;4.70;;;13.90;99.90;;;;;;5044820;28;20461;-27
2021/09/22 11:58:21;;;;;;;5.30;4.50;;;13.80;99.90;;;;;;5035950;28;20454;-27
2021/09/22 12:00:53;;;;;;;5.97;5.40;;;13.80;99.90;;;;;;5045842;28;20449;-27
2021/09/22 12:03:25;;;;;;;6.10;4.70;;;13.80;99.90;;;;;;5044994;28;20441;-27
2021/09/22 12:06:08;;;;;;;5.30;4.80;;;13.80;99.90;;;;;;5045049;28;20532;-27
2021/09/22 12:08:41;;;;;;;5.80;4.50;;;13.80;99.90;;;;;;5045191;28;20467;-27
2021/09/22 12:11:15;;;;;;;4.90;4.50;;;13.90;99.90;;;;;;5042497;28;20449;-27
2021/09/22 12:13:47;;;;;;;4.33;4.03;;;13.90;99.90;;;;;;5046010;28;20506;-27
2021/09/22 12:16:20;;;;;;;4.90;4.40;;;13.90;99.90;;;;;;5045129;28;20457;-27
2021/09/22 12:18:53;;;;;;;5.07;4.67;;;13.90;99.90;;;;;;5045460;28;20441;-27
2021/09/22 12:21:26;;;;;;;5.70;5.03;;;14.00;99.90;;;;;;5045096;28;20473;-27
2021/09/22 12:24:02;;;;;;;5.53;4.97;;;13.90;99.90;;;;;;5045709;28;20572;-27
2021/09/22 12:26:33;;;;;;;5.17;4.77;;;13.90;99.90;;;;;;5044444;28;20480;-27
2021/09/22 12:29:08;;;;;;;4.90;4.43;;;14.00;99.90;;;;;;5045160;28;20472;-27
2021/09/22 12:31:42;;;;;;;4.60;4.20;;;14.10;99.90;;;;;;5042391;28;20461;-27
2021/09/22 12:34:18;;;;;;;5.57;5.00;;;14.10;99.90;;;;;;5044816;28;20579;-27
2021/09/22 12:36:52;;;;;;;6.87;4.70;;;14.10;99.90;;;;;;5045119;28;20469;-27
2021/09/22 12:39:27;;;;;;;5.03;4.63;;;14.00;99.90;;;;;;5044738;28;20501;-27
2021/09/22 12:42:00;;;;;;;4.73;4.43;;;14.00;99.90;;;;;;5033920;28;20496;-27
2021/09/22 12:44:32;;;;;;;4.47;4.10;;;14.10;99.90;;;;;;5043589;28;20464;-27
2021/09/22 12:47:03;;;;;;;5.47;4.97;;;14.00;99.90;;;;;;5042990;28;20485;-27
2021/09/22 12:49:34;;;;;;;4.77;4.37;;;14.00;99.90;;;;;;5044611;28;20476;-27
2021/09/22 12:52:07;;;;;;;4.40;4.00;;;14.00;99.90;;;;;;5044642;28;20445;-27
2021/09/22 12:54:43;;;;;;;5.30;4.27;;;14.00;99.90;;;;;;5045068;28;20453;-27
2021/09/22 12:57:15;;;;;;;5.00;4.60;;;14.00;99.90;;;;;;5044199;28;20449;-27
2021/09/22 12:59:46;;;;;;;4.90;4.50;;;13.90;99.90;;;;;;5044632;28;20457;-27
2021/09/22 13:02:26;;;;;;;5.33;4.27;;;14.00;99.90;;;;;;5043659;28;20461;-27
2021/09/22 13:05:00;;;;;;;4.63;4.23;;;14.00;99.90;;;;;;5043874;28;20502;-27
2021/09/22 13:07:33;;;;;;;6.30;3.63;;;14.00;99.90;;;;;;5043957;28;20488;-27
2021/09/22 13:10:05;;;;;;;5.43;4.93;;;13.90;99.90;;;;;;5044286;28;20524;-27
2021/09/22 13:12:36;;;;;;;5.67;4.00;;;13.90;99.90;;;;;;5028283;28;20481;-27
2021/09/22 13:15:08;;;;;;;4.33;4.03;;;13.80;99.90;;;;;;5041756;28;20461;-27
2021/09/22 13:17:39;;;;;;;5.60;4.37;;;13.80;99.90;;;;;;5043217;28;20457;-27